DFFD/OUA METAR and TAF weather

Enter ICAO airport designator
Station Type Date Time Source
DFFD METAR 2019/12/06 04:00 UTC NOAA

DFFD 060400Z 04003KT CAVOK 20/04 Q1011 NOSIG


Station Type Date Time Source
DFFD Decoded METAR 2019/12/06 04:00 UTC NOAA

Ouagadougou, Burkina Faso (DFFD) 12-21N 001-31W 306M
Dec 05, 2019 - 11:00 PM EST / 2019.12.06 0400 UTC
Wind: from the NE (040 degrees) at 3 MPH (3 KT):0
Visibility: greater than 7 mile(s):0
Temperature: 68 F (20 C)
Dew Point: 39 F (4 C)
Relative Humidity: 34%
Pressure (altimeter): 29.85 in. Hg (1011 hPa)
ob: DFFD 060400Z 04003KT CAVOK 20/04 Q1011 NOSIG
cycle: 4

Station Type Date Time Source
DFFD TAF 2019/12/05 18:21 UTC NOAA

TAF TAF DFFD 051700Z 0518/0624 06010KT 8000 NSC
TEMPO 0518/0520 4000 HZ
TEMPO 0606/0610 3500 HZ

Example: see airport list